Terminal Aerodrome Forecast
Issued by NWS Shreveport, LA

Home | Current Version | Previous Version | Text Only | Print | Product List | Glossary On
Versions: 1 2 3 4 5 6 7 8 9 10 11 12 13 14
000
FTUS44 KSHV 312000 AAA
TAFGGG
TAF AMD
KGGG 312035Z 3121/0118 13008KT P6SM VCTS SCT008 OVC045CB
      TEMPO 3121/0101 -TSRA BKN008 OVC025CB
     FM010300 VRB06KT P6SM VCTS OVC030CB
     FM010600 06005KT P6SM OVC025
     FM010800 04005KT P6SM OVC015
      TEMPO 0109/0113 OVC005=

USA.gov is the U.S. government's official web portal to all federal, state and local government web resources and services.